Time;durP1;ratioP1;P1;durP2;ratioP2;P2;SDS_P1;SDS_P2;PMS_P1;PMS_P2;Temp;Humidity;BMP_temperature;BMP_pressure;BME280_temperature;BME280_humidity;BME280_pressure;Samples;Min_cycle;Max_cycle;Signal;HPM_P1;HPM_P2
2023/10/05 00:01:05;;;;;;;;;;;20.60;70.50;;;;;;4948376;28;94514;-38
2023/10/05 00:03:31;;;;;;;;;;;20.60;70.40;;;;;;4950105;28;95685;-38
2023/10/05 00:06:10;;;;;;;;;;;20.60;70.40;;;;;;4946514;28;95346;-38
2023/10/05 00:08:36;;;;;;;;;;;20.60;70.50;;;;;;4954020;28;96273;-39
2023/10/05 00:11:06;;;;;;;;;;;20.60;70.50;;;;;;4954303;28;94232;-39
2023/10/05 00:13:33;;;;;;;;;;;20.60;70.50;;;;;;4947443;28;95247;-39
2023/10/05 00:15:59;;;;;;;;;;;20.60;70.60;;;;;;4949805;28;99889;-38
2023/10/05 00:18:26;;;;;;;;;;;20.50;70.60;;;;;;4942833;28;95501;-38
2023/10/05 00:20:53;;;;;;;;;;;20.50;70.60;;;;;;4944285;28;95671;-38
2023/10/05 00:23:19;;;;;;;;;;;20.60;70.60;;;;;;4941982;28;94988;-38
2023/10/05 00:25:45;;;;;;;;;;;20.60;70.50;;;;;;4948435;28;94600;-38
2023/10/05 00:28:11;;;;;;;;;;;20.60;70.60;;;;;;4929800;28;95340;-38
2023/10/05 00:30:38;;;;;;;;;;;20.50;70.60;;;;;;4950483;28;95677;-38
2023/10/05 00:33:09;;;;;;;;;;;20.50;70.50;;;;;;4944731;28;95759;-38
2023/10/05 00:35:37;;;;;;;;;;;20.50;70.60;;;;;;4947427;28;98031;-38
2023/10/05 00:38:20;;;;;;;;;;;20.50;70.60;;;;;;4947319;28;96612;-38
2023/10/05 00:41:02;;;;;;;;;;;20.50;70.60;;;;;;4937671;28;95454;-38
2023/10/05 00:43:28;;;;;;;;;;;20.50;70.50;;;;;;4938746;28;96731;-38
2023/10/05 00:45:56;;;;;;;;;;;20.40;71.30;;;;;;4950560;28;97263;-38
2023/10/05 00:48:41;;;;;;;;;;;20.50;70.60;;;;;;4946936;28;99185;-39
2023/10/05 00:51:13;;;;;;;;;;;20.50;70.70;;;;;;4949152;28;94723;-39
2023/10/05 00:53:39;;;;;;;;;;;20.50;70.70;;;;;;4954604;28;94805;-38
2023/10/05 00:56:12;;;;;;;;;;;20.50;70.60;;;;;;4944278;28;95771;-38
2023/10/05 00:58:42;;;;;;;;;;;20.50;70.60;;;;;;4943421;28;97149;-38
2023/10/05 01:01:14;;;;;;;;;;;20.50;70.70;;;;;;4945821;28;94790;-38
2023/10/05 01:04:06;;;;;;;;;;;20.50;70.70;;;;;;4936888;28;98826;-39
2023/10/05 01:06:41;;;;;;;;;;;20.40;70.70;;;;;;4956983;28;95446;-39
2023/10/05 01:09:12;;;;;;;;;;;20.50;70.70;;;;;;4947777;28;94984;-38
2023/10/05 01:11:44;;;;;;;;;;;20.40;70.80;;;;;;4949595;28;96958;-38
2023/10/05 01:14:10;;;;;;;;;;;20.40;70.90;;;;;;4948000;28;94040;-38
2023/10/05 01:16:36;;;;;;;;;;;20.40;70.90;;;;;;4941970;28;95999;-38
2023/10/05 01:19:07;;;;;;;;;;;20.40;70.80;;;;;;4945408;28;100189;-38
2023/10/05 01:21:34;;;;;;;;;;;20.40;70.80;;;;;;4952079;28;97935;-39
2023/10/05 01:23:59;;;;;;;;;;;20.40;70.90;;;;;;4944181;28;95022;-38
2023/10/05 01:26:25;;;;;;;;;;;20.40;70.90;;;;;;4950436;28;94814;-39
2023/10/05 01:28:50;;;;;;;;;;;20.40;70.80;;;;;;4947886;28;94742;-38
2023/10/05 01:31:20;;;;;;;;;;;20.40;70.80;;;;;;4946069;28;94687;-38
2023/10/05 01:33:46;;;;;;;;;;;20.40;70.80;;;;;;4938354;28;94924;-38
2023/10/05 01:36:12;;;;;;;;;;;20.40;70.90;;;;;;4945604;28;95810;-38
2023/10/05 01:38:39;;;;;;;;;;;20.30;70.90;;;;;;4945807;28;94628;-39
2023/10/05 01:41:06;;;;;;;;;;;20.30;71.00;;;;;;4950769;28;95332;-38
2023/10/05 01:43:31;;;;;;;;;;;20.30;70.90;;;;;;4948235;28;95000;-38
2023/10/05 01:45:56;;;;;;;;;;;20.30;70.90;;;;;;4938381;28;96726;-38
2023/10/05 01:48:27;;;;;;;;;;;20.30;71.00;;;;;;4947372;28;95261;-38
2023/10/05 01:50:54;;;;;;;;;;;20.30;70.90;;;;;;4949617;28;94971;-38
2023/10/05 01:53:20;;;;;;;;;;;20.30;70.90;;;;;;4944065;28;94738;-38
2023/10/05 01:55:49;;;;;;;;;;;20.30;70.90;;;;;;4947227;28;95500;-39
2023/10/05 01:58:25;;;;;;;;;;;20.30;70.90;;;;;;4952693;28;94248;-38
2023/10/05 02:00:50;;;;;;;;;;;20.30;70.90;;;;;;4937855;28;94306;-38
2023/10/05 02:03:18;;;;;;;;;;;20.30;70.90;;;;;;4949253;28;94393;-38
2023/10/05 02:05:44;;;;;;;;;;;20.30;70.90;;;;;;4950542;28;96307;-38
2023/10/05 02:08:12;;;;;;;;;;;20.30;70.90;;;;;;4949183;28;94815;-38
2023/10/05 02:10:45;;;;;;;;;;;20.30;70.90;;;;;;4950646;28;95629;-38
2023/10/05 02:13:12;;;;;;;;;;;20.30;70.90;;;;;;4938434;28;95126;-37
2023/10/05 02:15:39;;;;;;;;;;;20.30;71.00;;;;;;4942387;28;94248;-38
2023/10/05 02:18:13;;;;;;;;;;;20.30;70.90;;;;;;4947455;28;95157;-38
2023/10/05 02:20:44;;;;;;;;;;;20.30;70.90;;;;;;4944000;28;100474;-38
2023/10/05 02:23:24;;;;;;;;;;;20.30;70.90;;;;;;4943342;28;94890;-38
2023/10/05 02:25:56;;;;;;;;;;;20.20;70.90;;;;;;4947034;28;95274;-40
2023/10/05 02:28:27;;;;;;;;;;;20.30;71.00;;;;;;4950904;28;93792;-38
2023/10/05 02:30:53;;;;;;;;;;;20.20;71.00;;;;;;4942608;28;94619;-40
2023/10/05 02:33:23;;;;;;;;;;;20.20;70.90;;;;;;4947107;28;94688;-38
2023/10/05 02:35:50;;;;;;;;;;;20.20;70.90;;;;;;4944997;28;96988;-38
2023/10/05 02:38:19;;;;;;;;;;;20.20;70.90;;;;;;4944883;28;96450;-38
2023/10/05 02:40:54;;;;;;;;;;;20.20;71.00;;;;;;4941435;28;94798;-38
2023/10/05 02:43:26;;;;;;;;;;;20.20;71.00;;;;;;4943530;28;94997;-38
2023/10/05 02:45:56;;;;;;;;;;;20.20;71.10;;;;;;4946512;28;96370;-39
2023/10/05 02:48:23;;;;;;;;;;;20.20;71.10;;;;;;4943065;28;96371;-39
2023/10/05 02:50:51;;;;;;;;;;;20.20;71.00;;;;;;4945582;28;94669;-38
2023/10/05 02:53:18;;;;;;;;;;;20.20;70.90;;;;;;4945737;28;94047;-38
2023/10/05 02:55:51;;;;;;;;;;;20.20;71.00;;;;;;4943950;28;94784;-38
2023/10/05 02:58:16;;;;;;;;;;;20.20;71.10;;;;;;4951679;28;94758;-38
2023/10/05 03:00:44;;;;;;;;;;;20.20;71.00;;;;;;4947725;28;96789;-38
2023/10/05 03:03:13;;;;;;;;;;;20.10;71.10;;;;;;4938226;28;95127;-38
2023/10/05 03:05:41;;;;;;;;;;;20.20;71.20;;;;;;4935754;28;95367;-38
2023/10/05 03:08:09;;;;;;;;;;;20.20;71.20;;;;;;4945022;28;94665;-38
2023/10/05 03:10:34;;;;;;;;;;;20.10;71.20;;;;;;4947596;28;94826;-38
2023/10/05 03:13:02;;;;;;;;;;;20.20;71.20;;;;;;4949120;28;94907;-38
2023/10/05 03:15:28;;;;;;;;;;;20.10;71.20;;;;;;4942181;28;95272;-38
2023/10/05 03:17:57;;;;;;;;;;;20.10;71.30;;;;;;4938154;28;94548;-38
2023/10/05 03:20:24;;;;;;;;;;;20.10;71.30;;;;;;4942687;28;95514;-38
2023/10/05 03:22:54;;;;;;;;;;;20.10;71.30;;;;;;4943962;28;95473;-38
2023/10/05 03:25:20;;;;;;;;;;;20.10;71.30;;;;;;4946333;28;96697;-38
2023/10/05 03:27:46;;;;;;;;;;;20.10;71.30;;;;;;4950514;28;96686;-38
2023/10/05 03:30:14;;;;;;;;;;;20.10;71.40;;;;;;4949919;28;95325;-38
2023/10/05 03:32:40;;;;;;;;;;;20.10;71.30;;;;;;4945153;28;98704;-39
2023/10/05 03:35:08;;;;;;;;;;;20.10;71.20;;;;;;4949901;28;96023;-38
2023/10/05 03:37:34;;;;;;;;;;;20.10;71.20;;;;;;4953466;28;96653;-38
2023/10/05 03:42:31;;;;;;;;;;;20.10;71.30;;;;;;4948670;28;95357;-39
2023/10/05 03:45:03;;;;;;;;;;;20.10;71.40;;;;;;4948852;28;97613;-38
2023/10/05 03:47:40;;;;;;;;;;;20.10;71.40;;;;;;4951986;28;95128;-38
2023/10/05 03:50:06;;;;;;;;;;;20.10;71.40;;;;;;4948968;28;95733;-38
2023/10/05 03:52:32;;;;;;;;;;;20.10;71.40;;;;;;4948264;28;101211;-38
2023/10/05 03:55:01;;;;;;;;;;;20.10;71.40;;;;;;4947578;28;95604;-38
2023/10/05 03:57:30;;;;;;;;;;;20.10;71.40;;;;;;4951251;28;95575;-38
2023/10/05 03:59:59;;;;;;;;;;;20.10;71.50;;;;;;4947804;28;95026;-39
2023/10/05 04:02:28;;;;;;;;;;;20.00;71.50;;;;;;4944365;28;100959;-38
2023/10/05 04:04:54;;;;;;;;;;;20.00;71.50;;;;;;4950736;28;96460;-39
2023/10/05 04:07:21;;;;;;;;;;;20.00;71.40;;;;;;4950432;28;96155;-38
2023/10/05 04:09:46;;;;;;;;;;;20.00;71.40;;;;;;4959237;28;95093;-38
2023/10/05 04:12:12;;;;;;;;;;;20.00;71.50;;;;;;4948454;28;96850;-39
2023/10/05 04:14:38;;;;;;;;;;;20.00;71.60;;;;;;4941955;28;96392;-38
2023/10/05 04:17:11;;;;;;;;;;;20.00;71.60;;;;;;4950878;28;95566;-39
2023/10/05 04:19:37;;;;;;;;;;;20.00;71.70;;;;;;4932823;28;95741;-38
2023/10/05 04:22:02;;;;;;;;;;;20.00;71.70;;;;;;4944364;28;95554;-38
2023/10/05 04:24:28;;;;;;;;;;;20.00;71.70;;;;;;4940934;28;95434;-38
2023/10/05 04:26:53;;;;;;;;;;;20.00;71.70;;;;;;4949476;28;97353;-39
2023/10/05 04:29:23;;;;;;;;;;;20.00;71.60;;;;;;4949219;28;96289;-38
2023/10/05 04:31:49;;;;;;;;;;;20.00;71.70;;;;;;4939167;28;94080;-38
2023/10/05 04:34:18;;;;;;;;;;;20.00;71.80;;;;;;4943983;28;95130;-38
2023/10/05 04:36:48;;;;;;;;;;;20.00;71.80;;;;;;4940115;28;95665;-38
2023/10/05 04:39:28;;;;;;;;;;;19.90;71.70;;;;;;4946828;28;96372;-39
2023/10/05 04:41:55;;;;;;;;;;;19.90;71.80;;;;;;4945173;28;94851;-38
2023/10/05 04:44:20;;;;;;;;;;;19.90;71.80;;;;;;4945162;28;94953;-38
2023/10/05 04:46:49;;;;;;;;;;;19.90;71.90;;;;;;4928391;28;95521;-39
2023/10/05 04:49:16;;;;;;;;;;;19.90;72.10;;;;;;4942300;28;95058;-38
2023/10/05 04:51:43;;;;;;;;;;;19.90;72.10;;;;;;4948094;28;96547;-38
2023/10/05 04:54:10;;;;;;;;;;;19.90;72.10;;;;;;4942024;28;95027;-38
2023/10/05 04:56:40;;;;;;;;;;;19.90;72.20;;;;;;4954351;28;94053;-38
2023/10/05 05:06:58;;;;;;;;;;;19.90;72.50;;;;;;4949358;28;95770;-38
2023/10/05 05:09:29;;;;;;;;;;;19.90;72.70;;;;;;4939969;28;100180;-39
2023/10/05 05:11:56;;;;;;;;;;;19.80;72.80;;;;;;4941306;28;97247;-38
2023/10/05 05:14:23;;;;;;;;;;;19.80;72.80;;;;;;4941812;28;100975;-39
2023/10/05 05:16:51;;;;;;;;;;;19.80;73.50;;;;;;4943559;28;95793;-39
2023/10/05 05:19:17;;;;;;;;;;;19.90;73.90;;;;;;4947034;28;95270;-38
2023/10/05 05:21:43;;;;;;;;;;;19.80;73.20;;;;;;4953843;28;94851;-39
2023/10/05 05:24:11;;;;;;;;;;;19.80;73.10;;;;;;4939299;28;94872;-38
2023/10/05 05:26:37;;;;;;;;;;;19.90;73.40;;;;;;4941666;28;96405;-38
2023/10/05 05:29:03;;;;;;;;;;;19.90;73.50;;;;;;4943662;28;95923;-38
2023/10/05 05:31:30;;;;;;;;;;;19.90;73.50;;;;;;4945071;28;95951;-38
2023/10/05 05:33:56;;;;;;;;;;;19.90;73.70;;;;;;4931474;28;95482;-38
2023/10/05 05:36:21;;;;;;;;;;;19.90;73.90;;;;;;4940490;28;95755;-38
2023/10/05 05:38:50;;;;;;;;;;;19.80;73.50;;;;;;4945344;28;94762;-38
2023/10/05 05:41:16;;;;;;;;;;;19.90;73.50;;;;;;4944335;28;95115;-38
2023/10/05 05:43:41;;;;;;;;;;;19.80;73.40;;;;;;4943933;28;95894;-38
2023/10/05 05:46:13;;;;;;;;;;;19.90;73.40;;;;;;4949635;28;94372;-38
2023/10/05 05:48:39;;;;;;;;;;;19.80;73.40;;;;;;4943199;28;94771;-38
2023/10/05 05:51:06;;;;;;;;;;;19.80;73.30;;;;;;4940764;28;95562;-39
2023/10/05 05:53:33;;;;;;;;;;;19.80;73.30;;;;;;4950633;28;95759;-38
2023/10/05 05:56:01;;;;;;;;;;;19.80;73.10;;;;;;4940591;28;95676;-38
2023/10/05 05:58:26;;;;;;;;;;;19.80;73.10;;;;;;4951587;28;95032;-38
2023/10/05 06:00:52;;;;;;;;;;;19.90;73.20;;;;;;4947373;28;94725;-39
2023/10/05 06:03:18;;;;;;;;;;;19.90;73.20;;;;;;4948284;28;95210;-37
2023/10/05 06:05:44;;;;;;;;;;;19.80;73.10;;;;;;4948653;28;98130;-37
2023/10/05 06:08:11;;;;;;;;;;;19.80;73.00;;;;;;4951351;28;95415;-37
2023/10/05 06:10:37;;;;;;;;;;;19.80;73.00;;;;;;4951028;28;95217;-37
2023/10/05 06:13:05;;;;;;;;;;;19.90;73.10;;;;;;4941653;28;95242;-37
2023/10/05 06:15:30;;;;;;;;;;;19.80;72.90;;;;;;4951989;28;95041;-37
2023/10/05 06:17:59;;;;;;;;;;;19.80;72.90;;;;;;4944245;28;97244;-37
2023/10/05 06:20:25;;;;;;;;;;;19.90;73.10;;;;;;4956463;28;95036;-37
2023/10/05 06:22:50;;;;;;;;;;;19.90;73.00;;;;;;4945181;28;95588;-36
2023/10/05 06:25:16;;;;;;;;;;;19.80;73.00;;;;;;4953237;28;95116;-37
2023/10/05 06:27:46;;;;;;;;;;;19.80;73.00;;;;;;4948744;28;95043;-37
2023/10/05 06:30:11;;;;;;;;;;;19.80;72.90;;;;;;4947299;28;94803;-37
2023/10/05 06:32:37;;;;;;;;;;;19.80;72.90;;;;;;4941332;28;96871;-37
2023/10/05 06:35:07;;;;;;;;;;;19.90;72.90;;;;;;4949254;28;94648;-37
2023/10/05 06:37:39;;;;;;;;;;;19.80;72.70;;;;;;4953424;28;95263;-37
2023/10/05 06:40:12;;;;;;;;;;;19.80;72.80;;;;;;4947152;28;94435;-39
2023/10/05 06:42:41;;;;;;;;;;;19.90;73.00;;;;;;4945608;28;95784;-37
2023/10/05 06:45:11;;;;;;;;;;;20.00;73.20;;;;;;4942103;28;98177;-36
2023/10/05 06:47:37;;;;;;;;;;;20.00;73.00;;;;;;4944594;28;98084;-37
2023/10/05 06:50:09;;;;;;;;;;;20.10;72.90;;;;;;4947290;28;95764;-36
2023/10/05 06:52:55;;;;;;;;;;;20.20;72.40;;;;;;4936196;28;94841;-36
2023/10/05 06:55:23;;;;;;;;;;;20.20;72.20;;;;;;4940874;28;96079;-37
2023/10/05 06:57:52;;;;;;;;;;;20.20;72.30;;;;;;4951062;28;95278;-41
2023/10/05 07:00:21;;;;;;;;;;;20.20;72.60;;;;;;4956093;28;94166;-38
2023/10/05 07:02:47;;;;;;;;;;;20.20;72.80;;;;;;4952074;28;95193;-38
2023/10/05 07:05:13;;;;;;;;;;;20.20;72.70;;;;;;4948823;28;94735;-37
2023/10/05 07:07:40;;;;;;;;;;;20.20;72.60;;;;;;4950617;28;97618;-37
2023/10/05 07:10:08;;;;;;;;;;;20.30;72.60;;;;;;4945952;28;97542;-38
2023/10/05 07:12:35;;;;;;;;;;;20.30;72.40;;;;;;4945962;28;95316;-38
2023/10/05 07:15:01;;;;;;;;;;;20.30;71.90;;;;;;4946485;28;95041;-39
2023/10/05 07:17:27;;;;;;;;;;;20.30;71.80;;;;;;4948047;28;95626;-38
2023/10/05 07:19:53;;;;;;;;;;;20.30;71.60;;;;;;4945498;28;95075;-41
2023/10/05 07:22:19;;;;;;;;;;;20.40;71.60;;;;;;4939823;28;95095;-37
2023/10/05 07:24:45;;;;;;;;;;;20.50;71.30;;;;;;4946917;28;93944;-37
2023/10/05 07:27:10;;;;;;;;;;;20.50;71.30;;;;;;4935153;28;99513;-37
2023/10/05 07:29:36;;;;;;;;;;;20.50;71.20;;;;;;4947397;28;97515;-38
2023/10/05 07:32:04;;;;;;;;;;;20.60;71.10;;;;;;4942537;28;97314;-37
2023/10/05 07:34:30;;;;;;;;;;;20.60;71.00;;;;;;4943809;28;96471;-38
2023/10/05 07:36:57;;;;;;;;;;;20.60;71.10;;;;;;4944610;28;95872;-37
2023/10/05 07:39:23;;;;;;;;;;;20.70;70.90;;;;;;4943031;28;95342;-37
2023/10/05 07:41:49;;;;;;;;;;;20.70;70.80;;;;;;4940107;28;95020;-36
2023/10/05 07:44:15;;;;;;;;;;;20.70;70.60;;;;;;4943070;28;94690;-38
2023/10/05 07:46:43;;;;;;;;;;;20.70;70.60;;;;;;4939573;28;95216;-37
2023/10/05 07:49:08;;;;;;;;;;;20.70;70.60;;;;;;4939521;28;94823;-38
2023/10/05 07:51:34;;;;;;;;;;;20.80;70.60;;;;;;4938424;28;95989;-39
2023/10/05 07:54:00;;;;;;;;;;;20.70;70.60;;;;;;4943507;28;95460;-39
2023/10/05 07:56:25;;;;;;;;;;;20.80;70.40;;;;;;4947697;28;96175;-36
2023/10/05 07:58:51;;;;;;;;;;;20.80;70.40;;;;;;4939518;28;94869;-37
2023/10/05 08:01:18;;;;;;;;;;;20.80;70.30;;;;;;4949181;28;95118;-36
2023/10/05 08:03:44;;;;;;;;;;;20.90;70.20;;;;;;4936187;28;99823;-37
2023/10/05 08:06:14;;;;;;;;;;;20.90;70.10;;;;;;4947472;28;94283;-36
2023/10/05 08:08:41;;;;;;;;;;;20.90;70.20;;;;;;4939339;28;95190;-43
2023/10/05 08:11:07;;;;;;;;;;;20.90;70.10;;;;;;4941879;28;95783;-38
2023/10/05 08:13:33;;;;;;;;;;;20.80;70.10;;;;;;4946989;28;95641;-38
2023/10/05 08:15:58;;;;;;;;;;;20.80;70.00;;;;;;4937449;28;95634;-38
2023/10/05 08:18:25;;;;;;;;;;;20.80;70.20;;;;;;4948651;28;94533;-36
2023/10/05 08:20:51;;;;;;;;;;;20.90;70.10;;;;;;4942809;28;99074;-38
2023/10/05 08:23:16;;;;;;;;;;;21.00;70.10;;;;;;4943776;28;95354;-45
2023/10/05 08:25:42;;;;;;;;;;;21.00;69.90;;;;;;4943072;28;95483;-37
2023/10/05 08:28:09;;;;;;;;;;;21.00;69.90;;;;;;4953140;28;94999;-37
2023/10/05 08:30:45;;;;;;;;;;;21.00;70.00;;;;;;4947452;28;99453;-42
2023/10/05 08:33:15;;;;;;;;;;;21.00;70.00;;;;;;4944104;28;95092;-37
2023/10/05 08:35:41;;;;;;;;;;;20.90;70.00;;;;;;4942957;28;94675;-40
2023/10/05 08:38:13;;;;;;;;;;;21.00;70.00;;;;;;4931830;28;99955;-38
2023/10/05 08:40:38;;;;;;;;;;;21.00;69.90;;;;;;4948492;28;96694;-38
2023/10/05 08:43:12;;;;;;;;;;;21.00;70.00;;;;;;4941809;28;94723;-37
2023/10/05 08:45:38;;;;;;;;;;;21.00;69.90;;;;;;4946822;28;98335;-39
2023/10/05 08:48:08;;;;;;;;;;;21.00;69.90;;;;;;4936822;28;96888;-39
2023/10/05 08:50:35;;;;;;;;;;;21.00;69.90;;;;;;4953020;28;95532;-37
2023/10/05 08:53:01;;;;;;;;;;;21.00;69.90;;;;;;4941889;28;94830;-37
2023/10/05 08:55:28;;;;;;;;;;;21.00;69.90;;;;;;4943671;28;95065;-40
2023/10/05 08:57:54;;;;;;;;;;;21.00;69.90;;;;;;4950320;28;94876;-37
2023/10/05 09:00:38;;;;;;;;;;;21.00;70.00;;;;;;4945824;28;97234;-37
2023/10/05 09:03:16;;;;;;;;;;;21.00;70.00;;;;;;4949032;28;95149;-37
2023/10/05 09:06:12;;;;;;;;;;;21.00;70.10;;;;;;4945740;28;94746;-41
2023/10/05 09:08:41;;;;;;;;;;;21.00;70.00;;;;;;4948187;28;94871;-37
2023/10/05 09:11:09;;;;;;;;;;;21.10;69.80;;;;;;4938475;28;97619;-41
2023/10/05 09:13:47;;;;;;;;;;;21.10;69.80;;;;;;4948411;28;100635;-38
2023/10/05 09:16:22;;;;;;;;;;;21.00;69.40;;;;;;4944473;28;97586;-38
2023/10/05 09:18:48;;;;;;;;;;;21.00;69.60;;;;;;4938999;28;96255;-42
2023/10/05 09:21:18;;;;;;;;;;;21.10;69.60;;;;;;4940552;28;96263;-42
2023/10/05 09:23:44;;;;;;;;;;;21.10;69.20;;;;;;4941108;28;100791;-38
2023/10/05 09:26:33;;;;;;;;;;;21.10;69.30;;;;;;4946331;28;94963;-38
2023/10/05 09:29:20;;;;;;;;;;;21.10;69.30;;;;;;4937294;28;95835;-39
2023/10/05 09:31:47;;;;;;;;;;;21.10;69.30;;;;;;4943330;28;94772;-38
2023/10/05 09:34:17;;;;;;;;;;;21.20;69.40;;;;;;4943410;28;95814;-39
2023/10/05 09:36:43;;;;;;;;;;;21.10;69.00;;;;;;4937652;28;96422;-39
2023/10/05 09:39:10;;;;;;;;;;;21.20;69.10;;;;;;4948011;28;94783;-38
2023/10/05 09:41:36;;;;;;;;;;;21.20;69.10;;;;;;4938915;28;97376;-38
2023/10/05 09:44:07;;;;;;;;;;;21.20;69.10;;;;;;4940837;28;95055;-40
2023/10/05 09:46:34;;;;;;;;;;;21.20;69.00;;;;;;4947286;28;95438;-37
2023/10/05 09:49:01;;;;;;;;;;;21.20;68.90;;;;;;4944741;28;95761;-38
2023/10/05 09:51:27;;;;;;;;;;;21.20;68.90;;;;;;4943983;28;96248;-39
2023/10/05 09:53:54;;;;;;;;;;;21.30;68.90;;;;;;4938741;28;94549;-38
2023/10/05 09:56:20;;;;;;;;;;;21.30;68.80;;;;;;4938228;28;95881;-41
2023/10/05 09:58:46;;;;;;;;;;;21.30;69.10;;;;;;4936216;28;96368;-41
2023/10/05 10:01:20;;;;;;;;;;;21.30;68.70;;;;;;4941207;28;98582;-40
2023/10/05 10:03:46;;;;;;;;;;;21.30;68.80;;;;;;4940428;28;95507;-38
2023/10/05 10:06:13;;;;;;;;;;;21.40;68.80;;;;;;4956256;28;95442;-39
2023/10/05 10:08:51;;;;;;;;;;;21.30;68.60;;;;;;4951650;28;94622;-38
2023/10/05 10:11:20;;;;;;;;;;;21.40;68.70;;;;;;4944920;28;95345;-37
2023/10/05 10:13:59;;;;;;;;;;;21.40;68.70;;;;;;4940686;28;96824;-37
2023/10/05 10:16:26;;;;;;;;;;;21.40;68.60;;;;;;4933193;28;96357;-37
2023/10/05 10:18:52;;;;;;;;;;;21.40;68.50;;;;;;4947670;28;94298;-40
2023/10/05 10:21:32;;;;;;;;;;;21.40;68.40;;;;;;4941502;28;94227;-37
2023/10/05 10:24:03;;;;;;;;;;;21.40;68.40;;;;;;4945756;28;94606;-38
2023/10/05 10:26:29;;;;;;;;;;;21.40;68.40;;;;;;4943466;28;96181;-38
2023/10/05 10:31:25;;;;;;;;;;;21.40;68.30;;;;;;4935929;28;95692;-38
2023/10/05 10:33:51;;;;;;;;;;;21.50;68.30;;;;;;4934318;28;96036;-38
2023/10/05 10:36:35;;;;;;;;;;;21.40;68.20;;;;;;4944340;28;96282;-39
2023/10/05 10:39:21;;;;;;;;;;;21.50;68.10;;;;;;4935438;28;96114;-40
2023/10/05 10:42:07;;;;;;;;;;;21.50;68.20;;;;;;4939296;28;94872;-40
2023/10/05 10:44:57;;;;;;;;;;;21.40;68.10;;;;;;4939671;28;95616;-41
2023/10/05 10:47:23;;;;;;;;;;;21.50;68.40;;;;;;4942516;28;95430;-40
2023/10/05 10:50:52;;;;;;;;;;;21.50;68.10;;;;;;4938710;28;95527;-39
2023/10/05 10:53:13;;;;;;;;;;;21.50;68.20;;;;;;4935864;28;97009;-38
2023/10/05 10:55:42;;;;;;;;;;;21.60;68.10;;;;;;4938664;28;95624;-39
2023/10/05 10:58:12;;;;;;;;;;;21.50;68.10;;;;;;4948310;28;95083;-37
2023/10/05 11:00:54;;;;;;;;;;;21.50;68.10;;;;;;4942437;28;95263;-38
2023/10/05 11:03:24;;;;;;;;;;;21.60;68.00;;;;;;4945685;28;95411;-37
2023/10/05 11:05:54;;;;;;;;;;;21.60;68.10;;;;;;4944701;28;95303;-38
2023/10/05 11:08:22;;;;;;;;;;;21.70;68.00;;;;;;4947115;28;94783;-39
2023/10/05 11:10:54;;;;;;;;;;;21.70;67.90;;;;;;4948173;28;98680;-38
2023/10/05 11:13:19;;;;;;;;;;;21.70;67.90;;;;;;4938107;28;94725;-38
2023/10/05 11:15:48;;;;;;;;;;;21.70;67.80;;;;;;4943088;28;94757;-38
2023/10/05 11:18:18;;;;;;;;;;;21.70;68.10;;;;;;4923749;28;100240;-39
2023/10/05 11:20:52;;;;;;;;;;;21.80;67.70;;;;;;4947926;28;94870;-39
2023/10/05 11:23:23;;;;;;;;;;;21.70;67.60;;;;;;4942542;28;95759;-39
2023/10/05 11:25:51;;;;;;;;;;;21.70;67.80;;;;;;4938582;28;94154;-38
2023/10/05 11:28:23;;;;;;;;;;;21.70;67.90;;;;;;4948300;28;95037;-37
2023/10/05 11:30:49;;;;;;;;;;;21.70;68.40;;;;;;4946516;28;95247;-38
2023/10/05 11:33:17;;;;;;;;;;;21.80;67.80;;;;;;4942739;28;95774;-39
2023/10/05 11:35:48;;;;;;;;;;;21.80;68.10;;;;;;4937142;28;94430;-38
2023/10/05 11:38:15;;;;;;;;;;;21.80;67.80;;;;;;4945048;28;94863;-38
2023/10/05 11:40:49;;;;;;;;;;;21.70;67.70;;;;;;4949517;28;94357;-38
2023/10/05 11:43:18;;;;;;;;;;;21.80;67.90;;;;;;4929684;28;97368;-38
2023/10/05 11:45:56;;;;;;;;;;;21.80;67.90;;;;;;4934166;28;95003;-38
2023/10/05 11:48:26;;;;;;;;;;;21.70;67.70;;;;;;4940169;28;97686;-41
2023/10/05 11:50:52;;;;;;;;;;;21.80;68.10;;;;;;4941192;28;95055;-41
2023/10/05 11:53:21;;;;;;;;;;;21.80;67.80;;;;;;4941516;28;98479;-42
2023/10/05 11:55:49;;;;;;;;;;;21.80;67.90;;;;;;4939747;28;96059;-38
2023/10/05 11:58:18;;;;;;;;;;;21.80;68.10;;;;;;4957564;28;95280;-38
2023/10/05 12:00:46;;;;;;;;;;;21.80;68.10;;;;;;4944852;28;99303;-38
2023/10/05 12:03:12;;;;;;;;;;;21.80;67.90;;;;;;4951632;28;96932;-38
2023/10/05 12:05:38;;;;;;;;;;;21.90;68.30;;;;;;4953314;28;94725;-40
2023/10/05 12:08:07;;;;;;;;;;;21.90;68.10;;;;;;4950687;28;95625;-39
2023/10/05 12:10:32;;;;;;;;;;;21.90;68.40;;;;;;4946684;28;95208;-39
2023/10/05 12:13:02;;;;;;;;;;;22.00;68.00;;;;;;4936960;28;95454;-38
2023/10/05 12:15:28;;;;;;;;;;;21.90;67.70;;;;;;4949572;28;95414;-38
2023/10/05 12:17:54;;;;;;;;;;;21.90;68.10;;;;;;4940579;28;96128;-38
2023/10/05 12:20:20;;;;;;;;;;;21.90;67.90;;;;;;4945268;28;99106;-39
2023/10/05 12:22:49;;;;;;;;;;;21.90;67.60;;;;;;4941179;28;95325;-37
2023/10/05 12:25:24;;;;;;;;;;;22.00;68.60;;;;;;4945003;28;94095;-42
2023/10/05 12:27:49;;;;;;;;;;;22.00;68.40;;;;;;4941929;28;97491;-43
2023/10/05 12:30:16;;;;;;;;;;;22.00;68.00;;;;;;4942662;28;95113;-43
2023/10/05 12:32:41;;;;;;;;;;;22.00;68.20;;;;;;4938788;28;96206;-40
2023/10/05 12:35:13;;;;;;;;;;;22.00;67.90;;;;;;4933197;28;94821;-40
2023/10/05 12:37:43;;;;;;;;;;;22.00;68.30;;;;;;4949113;28;100370;-39
2023/10/05 12:40:18;;;;;;;;;;;22.00;68.30;;;;;;4947641;28;96603;-40
2023/10/05 12:42:51;;;;;;;;;;;22.00;68.00;;;;;;4934484;28;96199;-40
2023/10/05 12:45:22;;;;;;;;;;;22.10;68.30;;;;;;4946817;28;95385;-38
2023/10/05 12:47:54;;;;;;;;;;;22.10;68.30;;;;;;4946360;28;96279;-38
2023/10/05 12:50:28;;;;;;;;;;;22.20;68.50;;;;;;4945487;28;94320;-39
2023/10/05 12:52:53;;;;;;;;;;;22.20;68.40;;;;;;4936906;28;95494;-40
2023/10/05 12:55:20;;;;;;;;;;;22.20;68.30;;;;;;4947628;28;95358;-37
2023/10/05 12:57:46;;;;;;;;;;;22.20;68.80;;;;;;4945478;28;96061;-37
2023/10/05 13:00:39;;;;;;;;;;;22.30;68.10;;;;;;4945332;28;95105;-37
2023/10/05 13:03:05;;;;;;;;;;;22.30;68.00;;;;;;4935020;28;95497;-38
2023/10/05 13:05:31;;;;;;;;;;;22.30;68.20;;;;;;4946305;28;96285;-40
2023/10/05 13:08:01;;;;;;;;;;;22.30;68.20;;;;;;4942702;28;97574;-41
2023/10/05 13:10:30;;;;;;;;;;;22.30;67.80;;;;;;4932989;28;94752;-40
2023/10/05 13:13:00;;;;;;;;;;;22.30;67.90;;;;;;4938024;28;98965;-43
2023/10/05 13:15:32;;;;;;;;;;;22.30;68.10;;;;;;4947177;28;94481;-37
2023/10/05 13:18:15;;;;;;;;;;;22.30;68.00;;;;;;4940857;28;95455;-37
2023/10/05 13:20:42;;;;;;;;;;;22.30;67.90;;;;;;4934499;28;97151;-39
2023/10/05 13:23:10;;;;;;;;;;;22.30;68.00;;;;;;4930793;28;96521;-39
2023/10/05 13:25:36;;;;;;;;;;;22.30;68.00;;;;;;4946154;28;95397;-39
2023/10/05 13:28:03;;;;;;;;;;;22.30;67.80;;;;;;4943400;28;95311;-38
2023/10/05 13:30:40;;;;;;;;;;;22.30;67.80;;;;;;4950322;28;95300;-38
2023/10/05 13:33:13;;;;;;;;;;;22.30;66.80;;;;;;4950408;28;95224;-38
2023/10/05 13:35:41;;;;;;;;;;;22.20;66.40;;;;;;4943128;28;95541;-38
2023/10/05 13:38:08;;;;;;;;;;;22.20;66.60;;;;;;4936850;28;95445;-37
2023/10/05 13:40:36;;;;;;;;;;;22.20;66.60;;;;;;4950327;28;93979;-38
2023/10/05 13:43:02;;;;;;;;;;;22.20;66.60;;;;;;4925644;28;94659;-39
2023/10/05 13:45:28;;;;;;;;;;;22.20;66.30;;;;;;4943176;28;95042;-41
2023/10/05 13:47:54;;;;;;;;;;;22.20;66.20;;;;;;4936004;28;99526;-39
2023/10/05 13:50:22;;;;;;;;;;;22.20;67.10;;;;;;4953106;28;94722;-37
2023/10/05 13:52:50;;;;;;;;;;;22.30;66.80;;;;;;4941405;28;96602;-37
2023/10/05 13:55:19;;;;;;;;;;;22.40;67.00;;;;;;4947213;28;94719;-37
2023/10/05 13:57:46;;;;;;;;;;;22.40;67.10;;;;;;4942718;28;95218;-40
2023/10/05 14:00:19;;;;;;;;;;;22.40;67.10;;;;;;4908779;28;1236462;-39
2023/10/05 14:02:44;;;;;;;;;;;22.40;67.10;;;;;;4952710;28;95933;-39
2023/10/05 14:05:10;;;;;;;;;;;22.40;67.20;;;;;;4938697;28;100016;-38
2023/10/05 14:07:35;;;;;;;;;;;22.40;67.60;;;;;;4946356;28;96784;-38
2023/10/05 14:10:05;;;;;;;;;;;22.40;67.20;;;;;;4945665;28;97049;-39
2023/10/05 14:12:31;;;;;;;;;;;22.40;67.10;;;;;;4951439;28;95731;-40
2023/10/05 14:14:58;;;;;;;;;;;22.40;67.10;;;;;;4944265;28;96663;-38
2023/10/05 14:17:24;;;;;;;;;;;22.40;67.10;;;;;;4948459;28;94854;-39
2023/10/05 14:19:50;;;;;;;;;;;22.40;67.20;;;;;;4945685;28;95543;-41
2023/10/05 14:22:15;;;;;;;;;;;22.40;67.20;;;;;;4945772;28;96106;-38
2023/10/05 14:24:45;;;;;;;;;;;22.40;67.10;;;;;;4945442;28;96305;-40
2023/10/05 14:27:11;;;;;;;;;;;22.40;66.90;;;;;;4940868;28;94710;-39
2023/10/05 14:29:37;;;;;;;;;;;22.50;67.00;;;;;;4946821;28;95904;-38
2023/10/05 14:32:06;;;;;;;;;;;22.50;67.00;;;;;;4922845;28;99684;-39
2023/10/05 14:34:33;;;;;;;;;;;22.40;66.90;;;;;;4954209;28;95201;-39
2023/10/05 14:36:59;;;;;;;;;;;22.40;66.90;;;;;;4936515;28;97277;-38
2023/10/05 14:39:32;;;;;;;;;;;22.40;67.00;;;;;;4947469;28;94718;-39